Krasnoyarsk, Russia
Current Conditions -  °F | °C
As of 11:00 PM on Monday 24 Nov 2014 (Local Time) from UNKL Reporting Station
Broken Clouds Broken Clouds  
Wind Chill: -26°   Ceiling: 17000
Heat Index: -11°   Visibility: 6mi
Dew Point: -18°   Wind: 7mph
Humidity: 70%   Direction: 250°WSW
Pressure: 29.85"   Gusts: NA
Location:  56.03°N, 93.05°E
Report Text: UNKL 241600Z 25003MPS 9000 SCT050 BKN170 M24/M28 Q1011 NOSIGRMK QFE733 29////55
Loading
Personal Weather Stations






























Interactive Weather Map New forecast layout! Learn more

10-Day Weather Forecast

Advertisements
Track Severe Weather on mobile